Current | Forecast
Updated: 3:00 AM CEST on April 23, 2018
Observed at Belgrade Nikola Tesla, Romania
Temperature 14°C
Humidity 67%
Dew Point 8°C
Wind Variable at 4 km/h
Pressure 1015 hPa (Steady)
Conditions Clear
Visibility -
UV N/A
Clouds
Yesterday's Maximum 26°C
Yesterday's Minimum 8°C approx.
Yesterday's Heating Degree Days 2 approx.
Sunrise6:37 AM EEST
Sunset8:29 PM EEST
Moon Rise1:05 PM EEST
Moon Set3:12 AM EEST
Moon PhaseMoon Phase
First Quarter
Raw METARMETAR LYBE 230100Z VRB02KT CAVOK 14/08 Q1015 NOSIG


Monday
. High: 73° F.
Tuesday
. High: 80° F.
Wednesday
. High: 87° F.
Thursday
. High: 93° F.
Friday
. High: 69° F.
Saturday
. High: 73° F.
Sunday
. High: 77° F.
Monday
. High: 80° F.

Units: English | Metric

Find the Weather for any City, State or Zipcode, or Country:

U.S. State List | Severe Weather | Tropical Storms | Ski Conditions
United States | Canada | Central America | South America | Asia | Europe | Australia | Africa | Islands

Weather Underground

© Copyright 2018
The Weather Company, LLC